Time;durP1;ratioP1;P1;durP2;ratioP2;P2;SDS_P1;SDS_P2;PMS_P1;PMS_P2;Temp;Humidity;BMP_temperature;BMP_pressure;BME280_temperature;BME280_humidity;BME280_pressure;Samples;Min_cycle;Max_cycle;Signal;HPM_P1;HPM_P2
2023/12/08 00:00:46;;;;;;;;;;;;;;;4.13;39.06;101643.09;5086824;28;19916;-69
2023/12/08 00:03:12;;;;;;;;;;;;;;;4.17;39.06;101642.69;5073416;28;19913;-68
2023/12/08 00:05:37;;;;;;;;;;;;;;;4.19;39.87;101651.41;5074240;28;19981;-65
2023/12/08 00:08:03;;;;;;;;;;;;;;;4.26;39.64;101649.94;5072460;28;19917;-66
2023/12/08 00:10:28;;;;;;;;;;;;;;;4.25;39.51;101639.44;5074949;28;19919;-67
2023/12/08 00:12:53;;;;;;;;;;;;;;;4.30;39.32;101644.38;5074599;28;19928;-67
2023/12/08 00:15:19;;;;;;;;;;;;;;;4.31;39.39;101646.94;5075696;28;19959;-66
2023/12/08 00:17:44;;;;;;;;;;;;;;;4.32;39.62;101640.63;5078556;28;19918;-67
2023/12/08 00:20:10;;;;;;;;;;;;;;;4.27;39.16;101637.47;5072959;28;19924;-69
2023/12/08 00:22:35;;;;;;;;;;;;;;;4.30;39.61;101636.41;5075432;28;19928;-66
2023/12/08 00:25:01;;;;;;;;;;;;;;;4.32;39.22;101639.78;5092216;28;19917;-57
2023/12/08 00:27:26;;;;;;;;;;;;;;;4.34;39.11;101640.50;5093394;28;20360;-60
2023/12/08 00:29:52;;;;;;;;;;;;;;;4.34;39.01;101645.81;5076911;28;20304;-59
2023/12/08 00:32:17;;;;;;;;;;;;;;;4.31;38.85;101644.28;5072799;28;19943;-59
2023/12/08 00:34:46;;;;;;;;;;;;;;;4.34;38.76;101656.47;5075853;28;19921;-58
2023/12/08 00:37:11;;;;;;;;;;;;;;;4.31;37.87;101656.69;5083813;28;20054;-59
2023/12/08 00:39:37;;;;;;;;;;;;;;;4.31;38.93;101665.53;5082055;28;20011;-59
2023/12/08 00:42:02;;;;;;;;;;;;;;;4.33;38.29;101660.94;5075049;28;19921;-60
2023/12/08 00:44:28;;;;;;;;;;;;;;;4.37;39.18;101649.09;5070489;28;20324;-59
2023/12/08 00:46:53;;;;;;;;;;;;;;;4.41;39.34;101645.19;5067816;28;19939;-60
2023/12/08 00:49:18;;;;;;;;;;;;;;;4.46;39.31;101639.53;5073739;28;19931;-61
2023/12/08 00:51:44;;;;;;;;;;;;;;;4.50;39.25;101638.31;5087128;28;20281;-61
2023/12/08 00:54:09;;;;;;;;;;;;;;;4.53;39.58;101639.84;5089797;28;19927;-59
2023/12/08 00:56:34;;;;;;;;;;;;;;;4.58;38.62;101635.84;5073620;28;19912;-60
2023/12/08 00:59:00;;;;;;;;;;;;;;;4.58;38.90;101635.00;5073485;28;19912;-60
2023/12/08 01:01:25;;;;;;;;;;;;;;;4.57;38.97;101638.63;5071728;28;19913;-60
2023/12/08 01:03:50;;;;;;;;;;;;;;;4.57;39.29;101647.47;5069971;28;19916;-60
2023/12/08 01:06:16;;;;;;;;;;;;;;;4.57;39.55;101643.94;5073553;28;19959;-60
2023/12/08 01:08:41;;;;;;;;;;;;;;;4.60;38.97;101638.38;5073606;28;20007;-60
2023/12/08 01:11:08;;;;;;;;;;;;;;;4.59;39.11;101632.22;5073104;28;19920;-60
2023/12/08 01:13:33;;;;;;;;;;;;;;;4.61;38.90;101624.97;5072841;28;20292;-60
2023/12/08 01:15:59;;;;;;;;;;;;;;;4.63;38.99;101617.69;5072968;28;19916;-60
2023/12/08 01:18:24;;;;;;;;;;;;;;;4.64;39.11;101605.22;5073334;28;20380;-60
2023/12/08 01:20:51;;;;;;;;;;;;;;;4.67;39.31;101598.81;5073402;28;20248;-60
2023/12/08 01:23:17;;;;;;;;;;;;;;;4.64;39.30;101581.28;5073312;28;20319;-60
2023/12/08 01:25:42;;;;;;;;;;;;;;;4.57;38.81;101570.31;5073362;28;19928;-59
2023/12/08 01:28:08;;;;;;;;;;;;;;;4.52;38.78;101569.03;5082706;28;19919;-58
2023/12/08 01:30:34;;;;;;;;;;;;;;;4.54;39.47;101573.22;5073375;28;20333;-60
2023/12/08 01:32:59;;;;;;;;;;;;;;;4.47;38.76;101572.88;5073683;28;20407;-59
2023/12/08 01:35:25;;;;;;;;;;;;;;;4.50;38.80;101582.44;5073672;28;19917;-60
2023/12/08 01:37:50;;;;;;;;;;;;;;;4.51;38.92;101584.13;5073182;28;19999;-60
2023/12/08 01:40:16;;;;;;;;;;;;;;;4.56;38.98;101587.25;5073389;28;19919;-60
2023/12/08 01:42:44;;;;;;;;;;;;;;;4.55;39.33;101590.03;5076040;28;20030;-60
2023/12/08 01:45:09;;;;;;;;;;;;;;;4.56;39.22;101592.56;5077514;28;19913;-60
2023/12/08 01:47:35;;;;;;;;;;;;;;;4.56;39.13;101589.06;5077178;28;19920;-58
2023/12/08 01:50:01;;;;;;;;;;;;;;;4.51;38.54;101593.91;5077250;28;19913;-59
2023/12/08 01:52:26;;;;;;;;;;;;;;;4.54;39.60;101604.31;5076670;28;20399;-58
2023/12/08 01:54:56;;;;;;;;;;;;;;;4.55;38.72;101613.97;5076397;28;20000;-59
2023/12/08 01:57:22;;;;;;;;;;;;;;;4.59;39.31;101616.25;5084655;28;19912;-60
2023/12/08 01:59:49;;;;;;;;;;;;;;;4.55;39.27;101622.81;5097620;28;19919;-59
2023/12/08 02:02:14;;;;;;;;;;;;;;;4.58;39.39;101617.22;5088657;28;19948;-60
2023/12/08 02:04:43;;;;;;;;;;;;;;;4.62;38.75;101618.69;5077113;28;20046;-59
2023/12/08 02:07:09;;;;;;;;;;;;;;;4.66;38.83;101624.56;5076943;28;20030;-60
2023/12/08 02:09:34;;;;;;;;;;;;;;;4.65;38.34;101618.41;5076744;28;19943;-60
2023/12/08 02:11:59;;;;;;;;;;;;;;;4.66;38.72;101624.56;5076302;28;19928;-60
2023/12/08 02:14:26;;;;;;;;;;;;;;;4.65;38.33;101620.22;5076536;28;19923;-59
2023/12/08 02:16:54;;;;;;;;;;;;;;;4.68;39.52;101621.78;5082707;28;20377;-60
2023/12/08 02:19:19;;;;;;;;;;;;;;;4.71;38.98;101614.41;5096952;28;19918;-60
2023/12/08 02:21:45;;;;;;;;;;;;;;;4.70;38.85;101612.72;5086137;28;19913;-60
2023/12/08 02:24:10;;;;;;;;;;;;;;;4.72;39.18;101617.91;5076659;28;19913;-59
2023/12/08 02:26:35;;;;;;;;;;;;;;;4.72;38.55;101620.56;5076782;28;20361;-59
2023/12/08 02:29:01;;;;;;;;;;;;;;;4.70;38.50;101631.34;5076307;28;20394;-58
2023/12/08 02:31:35;;;;;;;;;;;;;;;4.71;38.98;101618.88;5076260;28;19912;-61
2023/12/08 02:34:01;;;;;;;;;;;;;;;4.75;38.95;101615.00;5076222;28;19917;-58
2023/12/08 02:36:27;;;;;;;;;;;;;;;4.77;39.50;101616.56;5075875;28;20037;-58
2023/12/08 02:38:54;;;;;;;;;;;;;;;4.77;39.02;101616.56;5076205;28;19923;-59
2023/12/08 02:41:19;;;;;;;;;;;;;;;4.80;38.64;101620.78;5076069;28;20345;-58
2023/12/08 02:43:45;;;;;;;;;;;;;;;4.82;37.93;101629.47;5076261;28;19912;-58
2023/12/08 02:46:10;;;;;;;;;;;;;;;4.84;38.02;101627.53;5075918;28;20003;-58
2023/12/08 02:48:35;;;;;;;;;;;;;;;4.83;38.54;101615.22;5075775;28;19920;-59
2023/12/08 02:51:01;;;;;;;;;;;;;;;4.82;38.29;101625.00;5076101;28;19913;-59
2023/12/08 02:53:27;;;;;;;;;;;;;;;4.82;38.74;101619.66;5074647;28;19919;-59
2023/12/08 02:55:52;;;;;;;;;;;;;;;4.77;38.28;101613.91;5076512;28;19916;-59
2023/12/08 02:58:17;;;;;;;;;;;;;;;4.75;38.04;101615.81;5096179;28;19912;-59
2023/12/08 03:00:43;;;;;;;;;;;;;;;4.75;38.74;101613.16;5096342;28;20016;-57
2023/12/08 03:03:08;;;;;;;;;;;;;;;4.74;37.99;101606.16;5079874;28;19913;-57
2023/12/08 03:05:33;;;;;;;;;;;;;;;4.77;38.80;101610.38;5076169;28;19912;-57
2023/12/08 03:07:59;;;;;;;;;;;;;;;4.76;38.44;101609.53;5091381;28;19912;-60
2023/12/08 03:10:24;;;;;;;;;;;;;;;4.74;38.69;101606.16;5095945;28;20003;-60
2023/12/08 03:12:49;;;;;;;;;;;;;;;4.74;38.15;101603.50;5083275;28;19920;-60
2023/12/08 03:15:15;;;;;;;;;;;;;;;4.77;38.48;101605.94;5075304;28;19916;-60
2023/12/08 03:17:40;;;;;;;;;;;;;;;4.77;38.69;101599.75;5075013;28;19920;-60
2023/12/08 03:20:05;;;;;;;;;;;;;;;4.77;39.50;101595.28;5075250;28;19912;-59
2023/12/08 03:22:31;;;;;;;;;;;;;;;4.79;38.65;101598.66;5075366;28;19999;-60
2023/12/08 03:24:56;;;;;;;;;;;;;;;4.80;38.65;101599.50;5075237;28;20365;-59
2023/12/08 03:27:21;;;;;;;;;;;;;;;4.77;38.96;101595.28;5075461;28;20011;-59
2023/12/08 03:29:47;;;;;;;;;;;;;;;4.80;38.55;101603.00;5075428;28;19934;-60
2023/12/08 03:32:12;;;;;;;;;;;;;;;4.82;38.64;101602.88;5075219;28;19966;-60
2023/12/08 03:34:38;;;;;;;;;;;;;;;4.83;39.12;101597.41;5074960;28;19951;-60
2023/12/08 03:37:03;;;;;;;;;;;;;;;4.82;38.35;101601.03;5075138;28;19966;-60
2023/12/08 03:39:28;;;;;;;;;;;;;;;4.82;38.14;101601.03;5075400;28;20250;-58
2023/12/08 03:41:54;;;;;;;;;;;;;;;4.82;38.96;101609.03;5074746;28;19912;-57
2023/12/08 03:44:19;;;;;;;;;;;;;;;4.84;38.37;101600.91;5075095;28;19969;-58
2023/12/08 03:46:44;;;;;;;;;;;;;;;4.85;38.90;101600.78;5075346;28;20380;-59
2023/12/08 03:49:10;;;;;;;;;;;;;;;4.88;39.69;101605.00;5075287;28;19912;-59
2023/12/08 03:51:35;;;;;;;;;;;;;;;4.90;39.89;101604.88;5085822;28;20253;-60
2023/12/08 03:54:01;;;;;;;;;;;;;;;4.92;39.45;101598.47;5091734;28;20002;-60
2023/12/08 03:56:26;;;;;;;;;;;;;;;4.90;38.37;101605.72;5077466;28;20004;-60
2023/12/08 03:58:51;;;;;;;;;;;;;;;4.90;37.87;101607.53;5095041;28;19919;-59
2023/12/08 04:01:18;;;;;;;;;;;;;;;4.92;38.30;101600.28;5094450;28;19996;-60
2023/12/08 04:03:43;;;;;;;;;;;;;;;4.94;38.35;101599.19;5073212;28;19927;-60
2023/12/08 04:06:09;;;;;;;;;;;;;;;4.98;39.17;101597.94;5074423;28;20031;-57
2023/12/08 04:08:34;;;;;;;;;;;;;;;4.97;37.77;101600.75;5074609;28;19951;-60
2023/12/08 04:10:59;;;;;;;;;;;;;;;4.96;38.47;101597.25;5074591;28;19980;-59
2023/12/08 04:13:25;;;;;;;;;;;;;;;4.95;38.78;101600.88;5073694;28;19926;-58
2023/12/08 04:15:50;;;;;;;;;;;;;;;4.95;38.61;101598.19;5074179;28;19995;-59
2023/12/08 04:18:15;;;;;;;;;;;;;;;4.98;39.20;101594.47;5074165;28;20349;-55
2023/12/08 04:20:41;;;;;;;;;;;;;;;4.99;38.78;101602.28;5074833;28;19920;-58
2023/12/08 04:23:06;;;;;;;;;;;;;;;4.98;38.22;101602.44;5074716;28;19948;-56
2023/12/08 04:25:32;;;;;;;;;;;;;;;4.98;38.62;101603.28;5074147;28;19913;-55
2023/12/08 04:27:57;;;;;;;;;;;;;;;4.98;38.88;101602.44;5074096;28;19912;-55
2023/12/08 04:30:22;;;;;;;;;;;;;;;5.01;39.35;101596.84;5074013;28;20015;-57
2023/12/08 04:32:50;;;;;;;;;;;;;;;5.01;38.54;101599.50;5072830;28;19912;-55
2023/12/08 04:35:15;;;;;;;;;;;;;;;5.01;39.47;101596.84;5073973;28;20011;-58
2023/12/08 04:37:40;;;;;;;;;;;;;;;5.01;38.71;101603.03;5074101;28;19982;-59
2023/12/08 04:40:06;;;;;;;;;;;;;;;4.99;38.28;101598.78;5072383;28;19913;-57
2023/12/08 04:42:34;;;;;;;;;;;;;;;5.02;38.80;101595.88;5073760;28;19924;-58
2023/12/08 04:44:59;;;;;;;;;;;;;;;4.99;39.53;101598.78;5073704;28;20369;-59
2023/12/08 04:47:24;;;;;;;;;;;;;;;4.98;38.80;101594.47;5084709;28;19919;-58
2023/12/08 04:49:50;;;;;;;;;;;;;;;4.99;39.53;101593.47;5092916;28;19951;-56
2023/12/08 04:52:15;;;;;;;;;;;;;;;4.98;38.60;101586.47;5094368;28;19919;-58
2023/12/08 04:54:40;;;;;;;;;;;;;;;4.99;38.54;101580.16;5085591;28;20396;-59
2023/12/08 04:57:06;;;;;;;;;;;;;;;4.98;39.13;101578.47;5073803;28;20293;-60
2023/12/08 04:59:31;;;;;;;;;;;;;;;4.97;38.65;101574.13;5073821;28;19934;-60
2023/12/08 05:01:56;;;;;;;;;;;;;;;4.97;39.05;101566.13;5073508;28;19919;-59
2023/12/08 05:04:22;;;;;;;;;;;;;;;4.97;38.09;101568.78;5073545;28;19912;-60
2023/12/08 05:06:48;;;;;;;;;;;;;;;4.98;39.02;101554.53;5073710;28;20373;-60
2023/12/08 05:09:13;;;;;;;;;;;;;;;4.92;39.70;101552.38;5073639;28;19931;-59
2023/12/08 05:11:39;;;;;;;;;;;;;;;4.94;39.77;101558.41;5073151;28;19921;-60
2023/12/08 05:14:05;;;;;;;;;;;;;;;4.88;38.28;101553.59;5073342;28;19962;-58
2023/12/08 05:16:30;;;;;;;;;;;;;;;4.88;39.07;101558.91;5073037;28;19912;-60
2023/12/08 05:18:56;;;;;;;;;;;;;;;4.87;38.95;101558.09;5073573;28;19917;-61
2023/12/08 05:21:21;;;;;;;;;;;;;;;4.87;39.33;101551.91;5073524;28;19913;-61
2023/12/08 05:23:46;;;;;;;;;;;;;;;4.80;37.70;101549.75;5073441;28;19913;-59
2023/12/08 05:26:12;;;;;;;;;;;;;;;4.80;38.47;101543.59;5073632;28;19913;-59
2023/12/08 05:28:37;;;;;;;;;;;;;;;4.75;37.91;101548.47;5073390;28;19912;-58
2023/12/08 05:31:04;;;;;;;;;;;;;;;4.67;38.86;101549.09;5073757;28;19916;-58
2023/12/08 05:33:29;;;;;;;;;;;;;;;4.67;38.32;101542.94;5073366;28;20019;-58
2023/12/08 05:35:55;;;;;;;;;;;;;;;4.60;39.42;101540.78;5073113;28;19999;-59
2023/12/08 05:38:21;;;;;;;;;;;;;;;4.53;38.37;101528.13;5092286;28;19999;-59
2023/12/08 05:40:46;;;;;;;;;;;;;;;4.44;38.84;101530.59;5086300;28;20358;-59
2023/12/08 05:43:11;;;;;;;;;;;;;;;4.39;38.70;101527.47;5073475;28;19913;-60
2023/12/08 05:45:39;;;;;;;;;;;;;;;4.36;38.83;101532.19;5073251;28;19923;-59
2023/12/08 05:48:05;;;;;;;;;;;;;;;4.28;39.22;101532.00;5073436;28;19912;-58
2023/12/08 05:50:30;;;;;;;;;;;;;;;4.23;38.88;101535.00;5076290;28;19939;-60
2023/12/08 05:52:55;;;;;;;;;;;;;;;4.21;39.30;101528.97;5091797;28;20369;-59
2023/12/08 05:55:21;;;;;;;;;;;;;;;4.14;38.59;101533.09;5079309;28;19916;-60
2023/12/08 05:57:46;;;;;;;;;;;;;;;4.07;39.58;101520.31;5072763;28;19919;-59
2023/12/08 06:00:12;;;;;;;;;;;;;;;3.99;39.40;101522.78;5073002;28;19920;-59
2023/12/08 06:02:38;;;;;;;;;;;;;;;3.86;38.99;101516.75;5072621;28;19912;-60
2023/12/08 06:05:03;;;;;;;;;;;;;;;3.82;38.99;101510.81;5072932;28;19929;-60
2023/12/08 06:07:28;;;;;;;;;;;;;;;3.78;39.57;101512.03;5072652;28;20007;-58
2023/12/08 06:09:54;;;;;;;;;;;;;;;3.72;39.13;101517.03;5072920;28;19989;-60
2023/12/08 06:12:20;;;;;;;;;;;;;;;3.69;38.79;101516.28;5072583;28;19920;-59
2023/12/08 06:14:45;;;;;;;;;;;;;;;3.67;39.40;101517.38;5071322;28;19917;-59
2023/12/08 06:17:10;;;;;;;;;;;;;;;3.66;39.84;101521.84;5072828;28;19934;-59
2023/12/08 06:19:36;;;;;;;;;;;;;;;3.67;40.01;101509.41;5072582;28;19912;-59
2023/12/08 06:22:01;;;;;;;;;;;;;;;3.61;39.85;101510.75;5072681;28;19919;-56
2023/12/08 06:24:27;;;;;;;;;;;;;;;3.62;39.62;101508.94;5072671;28;19916;-58
2023/12/08 06:26:52;;;;;;;;;;;;;;;3.59;39.91;101509.19;5078796;28;19932;-59
2023/12/08 06:29:17;;;;;;;;;;;;;;;3.58;39.61;101504.84;5095979;28;19912;-59
2023/12/08 06:31:46;;;;;;;;;;;;;;;3.54;39.13;101512.19;5096382;28;20034;-61
2023/12/08 06:34:12;;;;;;;;;;;;;;;3.56;39.51;101506.78;5096327;28;19969;-59
2023/12/08 06:36:48;;;;;;;;;;;;;;;3.55;39.63;101513.03;5079171;28;19912;-60
2023/12/08 06:39:15;;;;;;;;;;;;;;;3.44;39.38;101484.69;5076064;28;19955;-59
2023/12/08 06:41:41;;;;;;;;;;;;;;;3.49;38.99;101498.44;5076066;28;19918;-58
2023/12/08 06:44:06;;;;;;;;;;;;;;;3.48;39.19;101499.41;5076108;28;19999;-59
2023/12/08 06:46:32;;;;;;;;;;;;;;;3.45;40.03;101500.47;5076243;28;19934;-60
2023/12/08 06:48:57;;;;;;;;;;;;;;;3.43;39.40;101502.41;5076173;28;19912;-60
2023/12/08 06:51:22;;;;;;;;;;;;;;;3.41;39.60;101503.53;5086668;28;19922;-59
2023/12/08 06:53:48;;;;;;;;;;;;;;;3.40;39.59;101505.34;5094924;28;20384;-59
2023/12/08 06:56:13;;;;;;;;;;;;;;;3.41;39.72;101508.84;5075825;28;20300;-58
2023/12/08 06:58:38;;;;;;;;;;;;;;;3.47;39.68;101498.59;5076122;28;20391;-58
2023/12/08 07:01:04;;;;;;;;;;;;;;;3.49;40.08;101501.97;5075838;28;19940;-57
2023/12/08 07:03:29;;;;;;;;;;;;;;;3.57;39.71;101493.38;5075314;28;20294;-58
2023/12/08 07:05:55;;;;;;;;;;;;;;;3.56;39.57;101496.97;5075580;28;19912;-59
2023/12/08 07:08:20;;;;;;;;;;;;;;;3.61;39.82;101499.28;5075950;28;19912;-58
2023/12/08 07:10:45;;;;;;;;;;;;;;;3.64;39.39;101505.19;5074265;28;19919;-58
2023/12/08 07:13:11;;;;;;;;;;;;;;;3.68;39.59;101501.31;5074186;28;19928;-61
2023/12/08 07:15:36;;;;;;;;;;;;;;;3.73;39.87;101508.06;5065669;28;20003;-61
2023/12/08 07:18:02;;;;;;;;;;;;;;;3.75;39.59;101512.31;5073758;28;20243;-61
2023/12/08 07:20:28;;;;;;;;;;;;;;;3.80;39.73;101527.88;5075267;28;19970;-63
2023/12/08 07:22:53;;;;;;;;;;;;;;;3.85;40.03;101518.56;5074578;28;19916;-63
2023/12/08 07:25:18;;;;;;;;;;;;;;;3.92;39.93;101520.72;5073894;28;19916;-61
2023/12/08 07:27:44;;;;;;;;;;;;;;;3.99;39.55;101516.59;5074653;28;19920;-61
2023/12/08 07:30:09;;;;;;;;;;;;;;;4.02;39.57;101519.84;5073587;28;20348;-62
2023/12/08 07:32:35;;;;;;;;;;;;;;;4.04;39.20;101517.06;5075431;28;19919;-62
2023/12/08 07:35:00;;;;;;;;;;;;;;;4.04;39.74;101515.25;5074518;28;19980;-62
2023/12/08 07:37:28;;;;;;;;;;;;;;;4.02;39.30;101511.88;5072727;28;19912;-64
2023/12/08 07:39:53;;;;;;;;;;;;;;;4.02;39.66;101514.53;5074185;28;19920;-65
2023/12/08 07:42:19;;;;;;;;;;;;;;;4.02;39.43;101498.59;5072538;28;19921;-63
2023/12/08 07:44:44;;;;;;;;;;;;;;;4.02;39.45;101511.03;5074308;28;19920;-63
2023/12/08 07:47:10;;;;;;;;;;;;;;;4.02;39.36;101513.69;5074195;28;19916;-64
2023/12/08 07:49:35;;;;;;;;;;;;;;;4.01;38.89;101517.31;5072249;28;20417;-63
2023/12/08 07:52:00;;;;;;;;;;;;;;;4.02;39.23;101517.19;5074817;28;20265;-63
2023/12/08 07:54:31;;;;;;;;;;;;;;;4.02;39.58;101511.88;5072159;28;19964;-62
2023/12/08 07:56:57;;;;;;;;;;;;;;;4.07;39.85;101512.34;5074736;28;20369;-62
2023/12/08 07:59:22;;;;;;;;;;;;;;;4.07;40.11;101520.31;5073740;28;19935;-60
2023/12/08 08:01:48;;;;;;;;;;;;;;;4.09;39.20;101514.88;5068054;28;19924;-57
2023/12/08 08:04:13;;;;;;;;;;;;;;;4.12;39.50;101513.78;5054337;28;20420;-61
2023/12/08 08:06:39;;;;;;;;;;;;;;;4.10;39.38;101515.72;5064136;28;19935;-60
2023/12/08 08:09:04;;;;;;;;;;;;;;;4.06;39.40;101502.69;5073465;28;19957;-59
2023/12/08 08:11:30;;;;;;;;;;;;;;;4.02;39.44;101501.25;5074005;28;19924;-60
2023/12/08 08:13:56;;;;;;;;;;;;;;;4.01;39.14;101496.91;5068091;28;20397;-62
2023/12/08 08:16:21;;;;;;;;;;;;;;;3.97;39.49;101490.13;5074171;28;19912;-60
2023/12/08 08:18:47;;;;;;;;;;;;;;;3.93;39.81;101483.38;5072030;28;19930;-61
2023/12/08 08:21:12;;;;;;;;;;;;;;;3.88;39.52;101490.88;5073325;28;19912;-62
2023/12/08 08:23:38;;;;;;;;;;;;;;;3.83;39.55;101485.97;5074025;28;20536;-61
2023/12/08 08:26:04;;;;;;;;;;;;;;;3.82;40.06;101489.56;5072389;28;19916;-61
2023/12/08 08:28:29;;;;;;;;;;;;;;;3.80;40.01;101480.88;5074429;28;20002;-61
2023/12/08 08:30:54;;;;;;;;;;;;;;;3.80;40.14;101478.22;5070901;28;20044;-61
2023/12/08 08:33:20;;;;;;;;;;;;;;;3.79;40.13;101475.69;5073960;28;19916;-61
2023/12/08 08:35:45;;;;;;;;;;;;;;;3.81;40.13;101481.75;5073878;28;19978;-61
2023/12/08 08:38:11;;;;;;;;;;;;;;;3.82;40.28;101488.72;5071526;28;20353;-61
2023/12/08 08:40:36;;;;;;;;;;;;;;;3.83;40.19;101475.31;5072784;28;19919;-57
2023/12/08 08:43:02;;;;;;;;;;;;;;;3.83;39.83;101483.31;5071401;28;20011;-58
2023/12/08 08:45:27;;;;;;;;;;;;;;;3.90;39.57;101480.13;5073330;28;19952;-61
2023/12/08 08:47:52;;;;;;;;;;;;;;;3.92;39.54;101481.72;5073837;28;19916;-62
2023/12/08 08:50:18;;;;;;;;;;;;;;;3.95;40.12;101477.94;5073262;28;20341;-60
2023/12/08 08:52:43;;;;;;;;;;;;;;;4.01;39.82;101480.97;5091345;28;19923;-60
2023/12/08 08:55:10;;;;;;;;;;;;;;;4.08;40.01;101475.97;5071368;28;19960;-60
2023/12/08 08:57:35;;;;;;;;;;;;;;;4.12;40.05;101473.91;5084724;28;20357;-61
2023/12/08 09:00:01;;;;;;;;;;;;;;;4.17;39.69;101474.38;5073136;28;19920;-60
2023/12/08 09:02:26;;;;;;;;;;;;;;;4.24;39.16;101473.75;5070367;28;19920;-60
2023/12/08 09:04:51;;;;;;;;;;;;;;;4.35;39.51;101477.34;5073032;28;19912;-61
2023/12/08 09:07:17;;;;;;;;;;;;;;;4.38;39.73;101469.94;5071916;28;20395;-61
2023/12/08 09:09:42;;;;;;;;;;;;;;;4.43;39.48;101467.72;5072960;28;20377;-61
2023/12/08 09:12:08;;;;;;;;;;;;;;;4.49;39.02;101466.34;5073996;28;19943;-60
2023/12/08 09:14:33;;;;;;;;;;;;;;;4.56;39.21;101464.88;5073312;28;20015;-59
2023/12/08 09:17:02;;;;;;;;;;;;;;;4.62;38.90;101463.50;5073964;28;19935;-60
2023/12/08 09:19:28;;;;;;;;;;;;;;;4.65;39.60;101479.22;5075013;28;19923;-60
2023/12/08 09:21:53;;;;;;;;;;;;;;;4.68;38.98;101472.78;5073298;28;19917;-61
2023/12/08 09:24:19;;;;;;;;;;;;;;;4.74;39.13;101474.94;5074100;28;19912;-63
2023/12/08 09:26:44;;;;;;;;;;;;;;;4.78;39.33;101481.69;5070932;28;19920;-60
2023/12/08 09:29:09;;;;;;;;;;;;;;;4.80;38.93;101471.75;5073111;28;19916;-61
2023/12/08 09:31:35;;;;;;;;;;;;;;;4.86;38.79;101476.53;5071435;28;19999;-60
2023/12/08 09:34:00;;;;;;;;;;;;;;;4.89;39.45;101481.63;5070920;28;19928;-60
2023/12/08 09:36:26;;;;;;;;;;;;;;;4.89;38.43;101491.44;5073079;28;19912;-61
2023/12/08 09:38:51;;;;;;;;;;;;;;;4.95;39.03;101490.88;5070831;28;19913;-60
2023/12/08 09:41:18;;;;;;;;;;;;;;;4.95;38.43;101489.06;5073440;28;19913;-60
2023/12/08 09:43:49;;;;;;;;;;;;;;;5.01;39.21;101493.00;5071892;28;20061;-60
2023/12/08 09:46:15;;;;;;;;;;;;;;;5.05;39.47;101481.13;5072605;28;19920;-60
2023/12/08 09:48:43;;;;;;;;;;;;;;;5.11;39.23;101485.94;5092961;28;20265;-60
2023/12/08 09:51:09;;;;;;;;;;;;;;;5.14;39.04;101485.66;5071785;28;20403;-59
2023/12/08 09:53:36;;;;;;;;;;;;;;;5.15;38.29;101489.19;5072063;28;19951;-61
2023/12/08 09:56:02;;;;;;;;;;;;;;;5.17;38.81;101488.06;5074316;28;20345;-62
2023/12/08 09:58:28;;;;;;;;;;;;;;;5.23;37.84;101478.69;5072646;28;19923;-60
2023/12/08 10:00:56;;;;;;;;;;;;;;;5.23;38.57;101471.53;5072968;28;19922;-62
2023/12/08 10:03:22;;;;;;;;;;;;;;;5.33;39.00;101470.72;5072675;28;19912;-60
2023/12/08 10:05:48;;;;;;;;;;;;;;;5.37;38.36;101474.84;5076246;28;19912;-62
2023/12/08 10:08:14;;;;;;;;;;;;;;;5.40;38.51;101464.75;5076419;28;20701;-62
2023/12/08 10:10:40;;;;;;;;;;;;;;;5.42;38.91;101468.13;5075585;28;19923;-62
2023/12/08 10:13:06;;;;;;;;;;;;;;;5.46;38.38;101458.03;5076480;28;20359;-63
2023/12/08 10:15:31;;;;;;;;;;;;;;;5.51;37.97;101450.47;5073853;28;20015;-62
2023/12/08 10:17:57;;;;;;;;;;;;;;;5.41;38.05;101446.94;5076501;28;20369;-61
2023/12/08 10:20:23;;;;;;;;;;;;;;;5.38;38.66;101444.53;5076152;28;19934;-62
2023/12/08 10:22:48;;;;;;;;;;;;;;;5.40;38.10;101453.25;5075026;28;19966;-61
2023/12/08 10:25:16;;;;;;;;;;;;;;;5.49;38.62;101447.09;5076826;28;20304;-63
2023/12/08 10:27:42;;;;;;;;;;;;;;;5.49;38.46;101443.59;5074358;28;20435;-62
2023/12/08 10:30:07;;;;;;;;;;;;;;;5.44;38.49;101441.31;5076128;28;19912;-61
2023/12/08 10:32:33;;;;;;;;;;;;;;;5.49;39.06;101441.78;5075663;28;19916;-61
2023/12/08 10:34:58;;;;;;;;;;;;;;;5.47;39.12;101440.22;5074322;28;20034;-61
2023/12/08 10:37:24;;;;;;;;;;;;;;;5.50;38.75;101427.47;5086561;28;19916;-59
2023/12/08 10:39:49;;;;;;;;;;;;;;;5.54;38.35;101428.88;5083344;28;19913;-59
2023/12/08 10:42:15;;;;;;;;;;;;;;;5.58;38.90;101429.47;5075754;28;19917;-57
2023/12/08 10:44:40;;;;;;;;;;;;;;;5.63;38.17;101435.22;5075932;28;20009;-57
2023/12/08 10:47:06;;;;;;;;;;;;;;;5.69;38.42;101434.66;5073439;28;20377;-59
2023/12/08 10:49:31;;;;;;;;;;;;;;;5.72;38.26;101437.06;5073218;28;19912;-62
2023/12/08 10:51:57;;;;;;;;;;;;;;;5.72;37.55;101444.19;5078573;28;19924;-62
2023/12/08 10:54:25;;;;;;;;;;;;;;;5.72;38.77;101441.53;5075204;28;19917;-62
2023/12/08 10:56:50;;;;;;;;;;;;;;;5.72;38.74;101433.53;5074853;28;19917;-62
2023/12/08 10:59:17;;;;;;;;;;;;;;;5.73;38.41;101437.91;5073525;28;19954;-62
2023/12/08 11:01:44;;;;;;;;;;;;;;;5.72;38.29;101442.41;5074951;28;19995;-62
2023/12/08 11:04:12;;;;;;;;;;;;;;;5.71;39.00;101442.53;5073753;28;19931;-62
2023/12/08 11:06:42;;;;;;;;;;;;;;;5.72;38.68;101445.06;5075508;28;20033;-62
2023/12/08 11:09:09;;;;;;;;;;;;;;;5.72;37.36;101447.72;5074272;28;19912;-62
2023/12/08 11:11:37;;;;;;;;;;;;;;;5.78;38.94;101451.66;5069355;28;19924;-62
2023/12/08 11:14:23;;;;;;;;;;;;;;;5.71;37.87;101446.03;5073333;28;20012;-61
2023/12/08 11:16:54;;;;;;;;;;;;;;;5.76;39.42;101451.78;5072006;28;19951;-59
2023/12/08 11:19:19;;;;;;;;;;;;;;;5.79;38.75;101440.00;5074221;28;19962;-61
2023/12/08 11:21:45;;;;;;;;;;;;;;;5.77;39.10;101437.47;5074449;28;19952;-61
2023/12/08 11:24:11;;;;;;;;;;;;;;;5.79;38.24;101440.00;5073618;28;19913;-61
2023/12/08 11:26:39;;;;;;;;;;;;;;;5.78;38.39;101436.50;5079150;28;19912;-63
2023/12/08 11:29:14;;;;;;;;;;;;;;;5.78;39.06;101438.34;5079261;28;19917;-59
2023/12/08 11:31:53;;;;;;;;;;;;;;;5.76;38.51;101430.47;5074754;28;20589;-60
2023/12/08 11:34:33;;;;;;;;;;;;;;;5.74;39.05;101427.09;5073257;28;19917;-58
2023/12/08 11:37:00;;;;;;;;;;;;;;;5.82;38.28;101429.06;5074690;28;19920;-60
2023/12/08 11:39:37;;;;;;;;;;;;;;;5.82;39.07;101426.41;5073942;28;19913;-61
2023/12/08 11:42:04;;;;;;;;;;;;;;;5.82;38.98;101426.41;5072356;28;20361;-60
2023/12/08 11:44:32;;;;;;;;;;;;;;;5.82;38.85;101421.06;5074290;28;19920;-59
2023/12/08 11:46:59;;;;;;;;;;;;;;;5.80;38.28;101418.53;5072468;28;20285;-60
2023/12/08 11:49:25;;;;;;;;;;;;;;;5.75;39.12;101418.13;5073571;28;19998;-59
2023/12/08 11:52:10;;;;;;;;;;;;;;;5.78;38.79;101412.50;5088584;28;19940;-61
2023/12/08 11:54:55;;;;;;;;;;;;;;;5.83;38.96;101417.41;5068375;28;19916;-60
2023/12/08 11:57:20;;;;;;;;;;;;;;;5.84;39.34;101411.13;5087275;28;19916;-60
2023/12/08 11:59:45;;;;;;;;;;;;;;;5.85;39.33;101409.28;5077996;28;20600;-59
2023/12/08 12:02:11;;;;;;;;;;;;;;;5.86;38.79;101405.66;5073736;28;19913;-60
2023/12/08 12:04:37;;;;;;;;;;;;;;;5.83;38.96;101406.75;5073776;28;19916;-60
2023/12/08 12:07:03;;;;;;;;;;;;;;;5.83;39.48;101404.09;5072417;28;20377;-61
2023/12/08 12:09:30;;;;;;;;;;;;;;;5.85;39.27;101386.16;5074280;28;20482;-61
2023/12/08 12:11:58;;;;;;;;;;;;;;;5.89;39.11;101389.34;5071219;28;19920;-60
2023/12/08 12:14:25;;;;;;;;;;;;;;;5.90;38.47;101383.06;5078961;28;19928;-62
2023/12/08 12:16:51;;;;;;;;;;;;;;;5.88;38.95;101377.84;5084373;28;19921;-61
2023/12/08 12:19:17;;;;;;;;;;;;;;;5.90;39.45;101386.56;5072373;28;19912;-61
2023/12/08 12:21:43;;;;;;;;;;;;;;;5.91;39.21;101388.25;5073187;28;20046;-60
2023/12/08 12:24:08;;;;;;;;;;;;;;;5.87;38.69;101386.00;5072125;28;19982;-60
2023/12/08 12:26:33;;;;;;;;;;;;;;;5.86;39.08;101374.50;5074076;28;19916;-60
2023/12/08 12:28:59;;;;;;;;;;;;;;;5.85;39.74;101372.84;5073343;28;20019;-60
2023/12/08 12:31:24;;;;;;;;;;;;;;;5.84;39.20;101371.13;5071605;28;19912;-60
2023/12/08 12:33:49;;;;;;;;;;;;;;;5.81;38.74;101368.75;5073377;28;20010;-60
2023/12/08 12:36:15;;;;;;;;;;;;;;;5.82;39.32;101375.75;5071687;28;19920;-63
2023/12/08 12:38:42;;;;;;;;;;;;;;;5.85;39.36;101377.28;5073811;28;19921;-60
2023/12/08 12:41:23;;;;;;;;;;;;;;;5.84;39.76;101373.81;5073129;28;20010;-61